createdAt,value
2018-01-12T00:01:04.277Z,5.70
2018-01-12T00:03:32.609Z,5.60
2018-01-12T00:06:00.919Z,5.60
2018-01-12T00:08:29.170Z,5.70
2018-01-12T00:10:58.197Z,5.70
2018-01-12T00:13:26.538Z,5.80
2018-01-12T00:15:54.800Z,5.60
2018-01-12T00:18:23.046Z,5.60
2018-01-12T00:20:51.337Z,5.70
2018-01-12T00:23:19.617Z,5.60
2018-01-12T00:25:48.769Z,5.70
2018-01-12T00:28:17.067Z,5.70
2018-01-12T00:30:45.491Z,5.70
2018-01-12T00:33:13.763Z,5.50
2018-01-12T00:35:42.072Z,5.70
2018-01-12T00:38:10.419Z,5.70
2018-01-12T00:40:38.835Z,5.40
2018-01-12T00:43:07.127Z,5.50
2018-01-12T00:45:36.234Z,5.20
2018-01-12T00:48:04.500Z,5.20
2018-01-12T00:50:32.949Z,5.00
2018-01-12T00:53:02.043Z,5.20
2018-01-12T00:55:30.309Z,5.20
2018-01-12T00:57:58.608Z,5.40
2018-01-12T01:00:26.886Z,5.10
2018-01-12T01:02:55.158Z,5.10
2018-01-12T01:05:23.442Z,5.30
2018-01-12T01:07:51.688Z,5.10
2018-01-12T01:10:19.915Z,5.00
2018-01-12T01:12:48.194Z,5.10
2018-01-12T01:15:16.432Z,5.00
2018-01-12T01:17:44.689Z,5.20
2018-01-12T01:20:13.036Z,5.10
2018-01-12T01:22:42.142Z,5.20
2018-01-12T01:25:10.427Z,5.20
2018-01-12T01:27:38.731Z,5.10
2018-01-12T01:30:07.079Z,5.40
2018-01-12T01:32:35.341Z,5.30
2018-01-12T01:35:03.650Z,5.30
2018-01-12T01:37:31.969Z,5.30
2018-01-12T01:40:00.217Z,5.30
2018-01-12T01:42:28.600Z,5.30
2018-01-12T01:44:56.874Z,5.30
2018-01-12T01:47:25.164Z,5.00
2018-01-12T01:49:53.463Z,5.10
2018-01-12T01:52:22.488Z,5.10
2018-01-12T01:54:51.014Z,5.10
2018-01-12T01:57:20.130Z,5.10
2018-01-12T01:59:49.196Z,5.10
2018-01-12T02:02:17.500Z,5.10
2018-01-12T02:04:45.829Z,5.00
2018-01-12T02:07:14.121Z,5.20
2018-01-12T02:09:42.361Z,5.10
2018-01-12T02:12:10.640Z,5.30
2018-01-12T02:14:38.901Z,5.10
2018-01-12T02:17:07.200Z,5.30
2018-01-12T02:19:35.600Z,5.20
2018-01-12T02:22:03.855Z,5.30
2018-01-12T02:24:32.156Z,5.40
2018-01-12T02:27:00.430Z,5.30
2018-01-12T02:29:28.728Z,5.20
2018-01-12T02:31:56.993Z,5.10
2018-01-12T02:34:25.344Z,5.10
2018-01-12T02:36:53.630Z,5.00
2018-01-12T02:39:21.880Z,5.40
2018-01-12T02:41:50.174Z,5.30
2018-01-12T02:44:18.513Z,5.30
2018-01-12T02:46:47.540Z,5.10
2018-01-12T02:49:15.831Z,5.10
2018-01-12T02:51:44.185Z,5.30
2018-01-12T02:54:12.483Z,5.20
2018-01-12T02:56:40.804Z,5.20
2018-01-12T02:59:09.089Z,5.30
2018-01-12T03:01:38.162Z,5.40
2018-01-12T03:04:07.231Z,5.50
2018-01-12T03:06:35.478Z,5.50
2018-01-12T03:09:03.761Z,5.50
2018-01-12T03:11:32.080Z,5.50
2018-01-12T03:14:01.125Z,5.30
2018-01-12T03:16:29.432Z,5.30
2018-01-12T03:18:57.804Z,5.40
2018-01-12T03:21:26.026Z,5.30
2018-01-12T03:23:55.064Z,5.50
2018-01-12T03:26:23.434Z,5.50
2018-01-12T03:28:51.709Z,5.50
2018-01-12T03:31:19.980Z,5.40
2018-01-12T03:33:48.325Z,5.30
2018-01-12T03:36:17.345Z,5.20
2018-01-12T03:38:45.631Z,5.20
2018-01-12T03:41:14.832Z,5.40
2018-01-12T03:43:43.100Z,5.40
2018-01-12T03:46:11.382Z,5.30
2018-01-12T03:48:39.661Z,5.40
2018-01-12T03:51:07.897Z,5.30
2018-01-12T03:53:36.895Z,5.20
2018-01-12T03:56:05.992Z,5.30
2018-01-12T03:58:35.020Z,5.40
2018-01-12T04:01:03.270Z,5.40
2018-01-12T04:03:31.678Z,5.50
2018-01-12T04:05:59.917Z,5.50
2018-01-12T04:08:28.952Z,5.50
2018-01-12T04:10:57.226Z,5.50
2018-01-12T04:13:25.530Z,5.40
2018-01-12T04:15:53.777Z,5.30
2018-01-12T04:18:22.061Z,5.20
2018-01-12T04:20:50.294Z,5.40
2018-01-12T04:23:18.567Z,5.40
2018-01-12T04:25:46.881Z,5.20
2018-01-12T04:28:15.156Z,5.30
2018-01-12T04:30:43.447Z,5.20
2018-01-12T04:33:11.786Z,5.50
2018-01-12T04:35:40.029Z,5.60
2018-01-12T04:38:09.050Z,5.20
2018-01-12T04:40:37.330Z,5.10
2018-01-12T04:43:05.641Z,5.00
2018-01-12T04:45:33.904Z,4.90
2018-01-12T04:48:02.207Z,4.80
2018-01-12T04:50:30.482Z,5.20
2018-01-12T04:52:58.752Z,5.30
2018-01-12T04:55:27.144Z,5.40
2018-01-12T04:57:55.430Z,5.50
2018-01-12T05:00:23.715Z,5.50
2018-01-12T05:02:52.055Z,5.50
2018-01-12T05:05:20.292Z,5.40
2018-01-12T05:07:48.602Z,5.40
2018-01-12T05:10:17.722Z,5.50
2018-01-12T05:12:45.965Z,5.40
2018-01-12T05:15:14.237Z,5.50
2018-01-12T05:17:42.615Z,5.50
2018-01-12T05:20:10.886Z,5.50
2018-01-12T05:22:39.184Z,5.40
2018-01-12T05:25:07.586Z,5.50
2018-01-12T05:27:36.633Z,5.40
2018-01-12T05:30:04.894Z,5.40
2018-01-12T05:32:33.278Z,5.50
2018-01-12T05:35:01.530Z,5.40
2018-01-12T05:37:29.879Z,5.50
2018-01-12T05:39:58.253Z,5.50
2018-01-12T05:42:26.547Z,5.50
2018-01-12T05:44:55.182Z,5.40
2018-01-12T05:47:23.684Z,5.40
2018-01-12T05:49:51.990Z,5.30
2018-01-12T05:52:21.020Z,5.40
2018-01-12T05:54:50.193Z,5.30
2018-01-12T05:57:18.471Z,5.30
2018-01-12T05:59:46.766Z,5.40
2018-01-12T06:02:32.987Z,5.30
2018-01-12T06:05:19.106Z,5.40
2018-01-12T06:07:47.433Z,5.40
2018-01-12T06:10:15.702Z,5.30
2018-01-12T06:12:43.975Z,5.30
2018-01-12T06:15:12.293Z,5.30
2018-01-12T06:17:40.561Z,5.40
2018-01-12T06:20:08.847Z,5.40
2018-01-12T06:22:37.142Z,5.40
2018-01-12T06:25:05.383Z,5.30
2018-01-12T06:27:33.769Z,5.30
2018-01-12T06:30:02.216Z,5.20
2018-01-12T06:32:30.520Z,5.40
2018-01-12T06:34:58.801Z,5.50
2018-01-12T06:37:27.291Z,5.50
2018-01-12T06:39:55.579Z,5.60
2018-01-12T06:42:23.900Z,5.30
2018-01-12T06:44:52.298Z,5.30
2018-01-12T06:47:20.558Z,5.20
2018-01-12T06:49:48.950Z,5.10
2018-01-12T06:52:17.294Z,5.20
2018-01-12T06:54:45.550Z,5.20
2018-01-12T06:57:13.788Z,5.10
2018-01-12T06:59:42.102Z,5.10
2018-01-12T07:02:10.432Z,5.20
2018-01-12T07:04:38.776Z,5.10
2018-01-12T07:07:07.018Z,5.20
2018-01-12T07:09:35.341Z,5.40
2018-01-12T07:12:03.827Z,5.40
2018-01-12T07:14:32.354Z,5.30
2018-01-12T07:17:00.649Z,5.80
2018-01-12T07:19:29.044Z,6.10
2018-01-12T07:22:15.807Z,5.60
2018-01-12T07:24:44.329Z,5.60
2018-01-12T07:27:13.357Z,5.50
2018-01-12T07:29:41.728Z,5.50
2018-01-12T07:32:10.092Z,5.30
2018-01-12T07:34:38.421Z,5.30
2018-01-12T07:37:06.777Z,5.40
2018-01-12T07:39:35.350Z,5.40
2018-01-12T07:42:03.751Z,5.40
2018-01-12T07:44:32.034Z,5.40
2018-01-12T07:47:00.486Z,5.40
2018-01-12T07:49:28.751Z,5.30
2018-01-12T07:51:57.017Z,5.30
2018-01-12T07:54:25.515Z,5.30
2018-01-12T07:56:53.894Z,5.30
2018-01-12T07:59:22.279Z,5.30
2018-01-12T08:01:56.191Z,5.40
2018-01-12T08:04:24.461Z,5.40
2018-01-12T08:06:52.916Z,5.30
2018-01-12T08:09:21.181Z,5.10
2018-01-12T08:11:49.807Z,5.30
2018-01-12T08:14:18.063Z,5.10
2018-01-12T08:16:47.185Z,5.10
2018-01-12T08:19:15.439Z,5.20
2018-01-12T08:21:43.764Z,5.00
2018-01-12T08:24:12.931Z,5.10
2018-01-12T08:26:41.298Z,5.10
2018-01-12T08:29:09.549Z,5.10
2018-01-12T08:31:37.849Z,5.30
2018-01-12T08:34:06.359Z,5.30
2018-01-12T08:36:34.619Z,5.40
2018-01-12T08:39:02.868Z,5.20
2018-01-12T08:41:31.334Z,5.30
2018-01-12T08:43:59.657Z,5.20
2018-01-12T08:46:27.905Z,5.40
2018-01-12T08:48:56.201Z,5.20
2018-01-12T08:51:24.495Z,5.40
2018-01-12T08:53:52.751Z,5.40
2018-01-12T08:56:21.052Z,5.20
2018-01-12T08:58:49.365Z,5.10
2018-01-12T09:01:17.710Z,5.00
2018-01-12T09:03:46.808Z,5.00
2018-01-12T09:06:15.115Z,5.00
2018-01-12T09:08:43.466Z,5.20
2018-01-12T09:11:11.750Z,5.10
2018-01-12T09:13:53.912Z,5.20
2018-01-12T09:16:28.346Z,5.10
2018-01-12T09:22:10.951Z,5.00
2018-01-12T09:24:45.878Z,5.20
2018-01-12T09:27:14.226Z,5.20
2018-01-12T09:29:42.567Z,5.10
2018-01-12T09:32:15.405Z,5.20
2018-01-12T09:35:06.164Z,5.00
2018-01-12T09:37:41.197Z,5.10
2018-01-12T09:54:00.328Z,5.20
2018-01-12T09:56:28.629Z,5.10
2018-01-12T09:59:02.650Z,5.20
2018-01-12T10:01:40.804Z,5.10
2018-01-12T10:04:09.937Z,5.00
2018-01-12T10:06:38.196Z,5.00
2018-01-12T10:09:06.556Z,5.00
2018-01-12T10:11:34.869Z,5.00
2018-01-12T10:14:03.107Z,4.80
2018-01-12T10:16:31.340Z,4.90
2018-01-12T10:19:00.395Z,4.80
2018-01-12T10:21:41.591Z,4.80
2018-01-12T10:24:09.916Z,4.90
2018-01-12T10:26:39.392Z,4.90
2018-01-12T10:29:08.405Z,4.90
2018-01-12T10:31:51.689Z,4.90
2018-01-12T10:34:44.706Z,5.10
2018-01-12T10:37:13.212Z,4.80
2018-01-12T10:40:01.403Z,4.60
2018-01-12T10:42:29.735Z,4.70
2018-01-12T10:44:58.847Z,4.40
2018-01-12T10:47:27.118Z,4.60
2018-01-12T10:50:17.945Z,4.80
2018-01-12T10:52:49.873Z,4.50
2018-01-12T10:55:18.169Z,4.50
2018-01-12T10:57:46.393Z,4.70
2018-01-12T11:00:33.105Z,4.50
2018-01-12T11:03:01.420Z,4.50
2018-01-12T11:05:29.692Z,4.60
2018-01-12T11:07:58.027Z,4.70
2018-01-12T11:10:26.249Z,4.70
2018-01-12T11:12:54.576Z,4.80
2018-01-12T11:15:22.929Z,4.50
2018-01-12T11:17:51.991Z,4.60
2018-01-12T11:20:20.569Z,4.50
2018-01-12T11:22:48.977Z,4.60
2018-01-12T11:25:18.024Z,4.80
2018-01-12T11:27:47.231Z,4.80
2018-01-12T11:30:15.540Z,4.70
2018-01-12T11:32:45.666Z,4.80
2018-01-12T11:35:13.936Z,4.80
2018-01-12T11:37:42.982Z,4.40
2018-01-12T11:40:11.222Z,4.30
2018-01-12T11:42:40.077Z,4.40
2018-01-12T11:45:08.378Z,4.20
2018-01-12T11:47:38.913Z,4.50
2018-01-12T11:50:07.270Z,4.70
2018-01-12T11:52:36.152Z,4.90
2018-01-12T11:55:04.430Z,5.40
2018-01-12T11:57:32.688Z,5.50
2018-01-12T12:00:01.030Z,5.80
2018-01-12T12:02:29.278Z,5.50
2018-01-12T12:04:57.554Z,6.00
2018-01-12T12:07:25.873Z,6.00
2018-01-12T12:09:54.181Z,5.80
2018-01-12T12:12:22.503Z,5.80
2018-01-12T12:14:50.813Z,5.90
2018-01-12T12:17:19.051Z,5.50
2018-01-12T12:19:47.269Z,5.00
2018-01-12T12:22:15.545Z,5.00
2018-01-12T12:24:43.805Z,4.80
2018-01-12T12:27:12.087Z,4.70
2018-01-12T12:29:40.438Z,4.50
2018-01-12T12:32:08.706Z,4.70
2018-01-12T12:34:37.097Z,4.70
2018-01-12T12:37:05.545Z,4.70
2018-01-12T12:39:34.600Z,4.80
2018-01-12T12:42:02.860Z,4.70
2018-01-12T12:44:31.120Z,4.70
2018-01-12T12:47:00.128Z,4.80
2018-01-12T12:49:28.543Z,4.80
2018-01-12T12:51:56.829Z,4.50
2018-01-12T12:54:25.077Z,4.40
2018-01-12T12:56:53.345Z,4.50
2018-01-12T12:59:21.984Z,4.70
2018-01-12T13:01:50.284Z,4.30
2018-01-12T13:04:18.632Z,4.40
2018-01-12T13:06:47.211Z,4.60
2018-01-12T13:09:16.236Z,4.80
2018-01-12T13:11:44.557Z,4.90
2018-01-12T13:14:13.677Z,4.70
2018-01-12T13:16:41.967Z,4.70
2018-01-12T13:19:10.291Z,4.80
2018-01-12T13:21:38.585Z,4.80
2018-01-12T13:24:06.856Z,4.80
2018-01-12T13:26:35.136Z,4.90
2018-01-12T13:29:03.433Z,4.80
2018-01-12T13:31:31.711Z,4.90
2018-01-12T13:34:00.784Z,4.80
2018-01-12T13:36:29.140Z,4.70
2018-01-12T13:38:57.443Z,4.90
2018-01-12T13:41:26.509Z,4.60
2018-01-12T13:43:55.225Z,4.60
2018-01-12T13:46:24.366Z,4.30
2018-01-12T13:48:52.618Z,4.30
2018-01-12T13:51:20.973Z,4.40
2018-01-12T13:53:49.208Z,4.40
2018-01-12T13:56:17.507Z,4.50
2018-01-12T13:58:45.817Z,4.50
2018-01-12T14:01:14.837Z,4.50
2018-01-12T14:03:43.112Z,4.50
2018-01-12T14:06:11.415Z,4.50
2018-01-12T14:08:39.672Z,4.40
2018-01-12T14:11:07.978Z,4.40
2018-01-12T14:13:37.146Z,4.20
2018-01-12T14:16:05.413Z,4.20
2018-01-12T14:18:33.666Z,4.60
2018-01-12T14:21:02.108Z,4.40
2018-01-12T14:23:30.399Z,4.40
2018-01-12T14:25:58.644Z,4.40
2018-01-12T14:28:26.923Z,4.30
2018-01-12T14:30:55.168Z,4.40
2018-01-12T14:33:23.389Z,3.80
2018-01-12T14:35:51.674Z,4.10
2018-01-12T14:38:19.901Z,3.80
2018-01-12T14:40:48.140Z,4.10
2018-01-12T14:43:18.917Z,4.20
2018-01-12T14:45:47.261Z,4.20
2018-01-12T14:48:15.515Z,4.20
2018-01-12T14:50:43.812Z,4.00
2018-01-12T14:53:12.063Z,4.10
2018-01-12T14:55:40.328Z,4.30
2018-01-12T14:58:09.850Z,4.00
2018-01-12T15:00:40.965Z,4.10
2018-01-12T15:03:09.214Z,4.50
2018-01-12T15:05:37.498Z,4.10
2018-01-12T15:08:05.732Z,4.20
2018-01-12T15:10:34.076Z,4.10
2018-01-12T15:13:02.451Z,4.20
2018-01-12T15:15:30.711Z,4.10
2018-01-12T15:17:59.025Z,4.10
2018-01-12T15:20:28.273Z,4.10
2018-01-12T15:22:56.540Z,4.10
2018-01-12T15:25:24.918Z,4.30
2018-01-12T15:27:53.215Z,4.30
2018-01-12T15:30:21.456Z,4.30
2018-01-12T15:32:49.690Z,4.30
2018-01-12T15:35:18.154Z,4.30
2018-01-12T15:37:46.408Z,4.40
2018-01-12T15:40:14.631Z,4.40
2018-01-12T15:42:43.727Z,4.30
2018-01-12T15:45:12.008Z,4.30
2018-01-12T15:47:41.029Z,4.10
2018-01-12T15:50:10.080Z,4.10
2018-01-12T15:52:38.357Z,4.10
2018-01-12T15:55:07.635Z,4.10
2018-01-12T15:57:35.963Z,3.80
2018-01-12T16:00:04.169Z,3.70
2018-01-12T16:02:32.501Z,3.80
2018-01-12T16:05:02.212Z,3.90
2018-01-12T16:07:31.253Z,4.10
2018-01-12T16:09:59.503Z,4.10
2018-01-12T16:12:28.182Z,4.10
2018-01-12T16:14:57.224Z,4.10
2018-01-12T16:17:25.492Z,4.10
2018-01-12T16:19:53.792Z,3.90
2018-01-12T16:22:22.053Z,3.80
2018-01-12T16:24:50.319Z,3.80
2018-01-12T16:27:18.628Z,4.00
2018-01-12T16:29:46.910Z,4.10
2018-01-12T16:32:15.936Z,3.90
2018-01-12T16:34:44.262Z,3.90
2018-01-12T16:37:12.541Z,4.00
2018-01-12T16:39:40.814Z,3.90
2018-01-12T16:42:09.100Z,4.00
2018-01-12T16:44:37.345Z,3.80
2018-01-12T16:47:05.638Z,3.40
2018-01-12T16:49:33.921Z,3.40
2018-01-12T16:52:02.256Z,3.30
2018-01-12T16:54:30.541Z,3.70
2018-01-12T16:56:58.858Z,3.90
2018-01-12T16:59:27.105Z,4.00
2018-01-12T17:01:56.270Z,3.90
2018-01-12T17:04:24.565Z,3.80
2018-01-12T17:06:52.847Z,3.00
2018-01-12T17:09:21.109Z,3.40
2018-01-12T17:11:49.632Z,3.60
2018-01-12T17:14:18.152Z,3.70
2018-01-12T17:16:46.452Z,3.50
2018-01-12T17:19:15.444Z,3.70
2018-01-12T17:21:43.692Z,3.60
2018-01-12T17:24:11.987Z,3.30
2018-01-12T17:26:41.199Z,3.30
2018-01-12T17:29:09.451Z,3.40
2018-01-12T17:31:37.705Z,3.50
2018-01-12T17:34:06.785Z,3.60
2018-01-12T17:36:35.031Z,3.50
2018-01-12T17:39:03.405Z,3.20
2018-01-12T17:41:32.904Z,3.50
2018-01-12T17:44:01.147Z,3.60
2018-01-12T17:46:29.388Z,3.70
2018-01-12T17:48:57.749Z,3.80
2018-01-12T17:51:26.023Z,3.80
2018-01-12T17:53:54.298Z,3.60
2018-01-12T17:56:22.562Z,3.50
2018-01-12T17:58:50.808Z,3.20
2018-01-12T18:01:19.044Z,3.50
2018-01-12T18:03:47.319Z,3.50
2018-01-12T18:06:15.568Z,3.40
2018-01-12T18:08:43.821Z,3.60
2018-01-12T18:11:12.119Z,3.50
2018-01-12T18:13:40.351Z,3.60
2018-01-12T18:16:08.761Z,3.40
2018-01-12T18:18:37.107Z,3.50
2018-01-12T18:21:05.335Z,3.10
2018-01-12T18:23:33.572Z,3.40
2018-01-12T18:26:01.858Z,3.50
2018-01-12T18:28:30.113Z,3.30
2018-01-12T18:30:58.345Z,3.60
2018-01-12T18:33:26.646Z,3.60
2018-01-12T18:35:55.664Z,3.40
2018-01-12T18:38:23.917Z,3.40
2018-01-12T18:40:53.026Z,3.50
2018-01-12T18:43:21.375Z,3.40
2018-01-12T18:45:49.623Z,3.30
2018-01-12T18:48:17.902Z,3.30
2018-01-12T18:50:46.251Z,3.60
2018-01-12T18:53:14.559Z,3.40
2018-01-12T18:55:43.296Z,3.20
2018-01-12T18:58:11.740Z,3.20
2018-01-12T19:00:41.009Z,3.50
2018-01-12T19:03:09.303Z,3.50
2018-01-12T19:05:37.581Z,3.60
2018-01-12T19:08:06.524Z,3.40
2018-01-12T19:10:34.901Z,3.50
2018-01-12T19:13:03.148Z,3.50
2018-01-12T19:15:32.147Z,3.40
2018-01-12T19:18:01.286Z,3.20
2018-01-12T19:20:29.534Z,3.20
2018-01-12T19:22:57.874Z,3.40
2018-01-12T19:25:27.218Z,3.30
2018-01-12T19:27:55.454Z,3.30
2018-01-12T19:30:24.242Z,3.00
2018-01-12T19:32:52.625Z,3.20
2018-01-12T19:35:21.193Z,3.50
2018-01-12T19:37:49.414Z,3.00
2018-01-12T19:40:20.071Z,3.10
2018-01-12T19:42:48.341Z,3.30
2018-01-12T19:45:18.201Z,3.10
2018-01-12T19:47:46.447Z,3.10
2018-01-12T19:50:14.906Z,3.30
2018-01-12T19:52:43.194Z,3.10
2018-01-12T19:55:12.222Z,3.20
2018-01-12T19:57:41.232Z,3.40
2018-01-12T20:00:10.290Z,3.00
2018-01-12T20:02:38.548Z,3.00
2018-01-12T20:05:06.823Z,2.90
2018-01-12T20:07:35.148Z,2.80
2018-01-12T20:10:04.161Z,3.20
2018-01-12T20:12:32.410Z,3.10
2018-01-12T20:15:01.496Z,3.30
2018-01-12T20:17:29.742Z,3.30
2018-01-12T20:19:58.116Z,3.20
2018-01-12T20:22:26.431Z,3.40
2018-01-12T20:24:55.462Z,3.50
2018-01-12T20:27:23.694Z,3.50
2018-01-12T20:29:51.981Z,3.20
2018-01-12T20:32:20.211Z,3.40
2018-01-12T20:34:48.490Z,3.40
2018-01-12T20:37:16.751Z,3.20
2018-01-12T20:39:44.996Z,3.00
2018-01-12T20:42:14.020Z,3.40
2018-01-12T20:44:42.336Z,3.40
2018-01-12T20:47:10.574Z,3.20
2018-01-12T20:49:38.814Z,3.00
2018-01-12T20:52:07.901Z,3.10
2018-01-12T20:54:36.309Z,3.00
2018-01-12T20:57:04.557Z,2.60
2018-01-12T20:59:33.636Z,3.00
2018-01-12T21:02:01.866Z,2.90
2018-01-12T21:04:30.096Z,2.90
2018-01-12T21:06:58.417Z,2.50
2018-01-12T21:09:26.663Z,2.70
2018-01-12T21:11:55.679Z,2.80
2018-01-12T21:14:23.983Z,2.80
2018-01-12T21:16:52.258Z,3.00
2018-01-12T21:19:20.572Z,2.90
2018-01-12T21:21:48.885Z,2.80
2018-01-12T21:24:17.116Z,3.00
2018-01-12T21:26:45.418Z,2.70
2018-01-12T21:29:14.444Z,3.10
2018-01-12T21:31:42.697Z,3.10
2018-01-12T21:34:11.005Z,3.00
2018-01-12T21:36:39.323Z,2.50
2018-01-12T21:39:07.622Z,2.20
2018-01-12T21:41:35.887Z,2.60
2018-01-12T21:44:04.326Z,2.80
2018-01-12T21:46:32.604Z,2.90
2018-01-12T21:49:01.001Z,3.10
2018-01-12T21:51:30.293Z,2.70
2018-01-12T21:53:58.571Z,2.70
2018-01-12T21:56:26.802Z,2.80
2018-01-12T21:58:55.133Z,3.00
2018-01-12T22:01:24.523Z,2.80
2018-01-12T22:03:52.728Z,2.60
2018-01-12T22:06:21.907Z,2.60
2018-01-12T22:08:50.934Z,2.70
2018-01-12T22:11:19.193Z,2.70
2018-01-12T22:13:48.368Z,2.80
2018-01-12T22:16:16.606Z,2.80
2018-01-12T22:18:44.839Z,2.10
2018-01-12T22:21:13.884Z,2.60
2018-01-12T22:23:42.200Z,2.60
2018-01-12T22:26:11.215Z,2.90
2018-01-12T22:28:39.470Z,2.90
2018-01-12T22:31:08.548Z,2.60
2018-01-12T22:33:36.811Z,2.60
2018-01-12T22:36:05.142Z,2.10
2018-01-12T22:38:33.361Z,2.40
2018-01-12T22:41:01.616Z,1.80
2018-01-12T22:43:29.908Z,2.40
2018-01-12T22:45:58.146Z,2.60
2018-01-12T22:48:26.466Z,2.20
2018-01-12T22:50:54.698Z,2.40
2018-01-12T22:53:22.934Z,2.40
2018-01-12T22:55:51.272Z,2.50
2018-01-12T22:58:19.515Z,2.80
2018-01-12T23:00:47.753Z,2.30
2018-01-12T23:03:16.029Z,2.40
2018-01-12T23:05:44.250Z,2.40
2018-01-12T23:08:12.481Z,2.30
2018-01-12T23:10:41.545Z,2.20
2018-01-12T23:13:09.796Z,2.20
2018-01-12T23:15:38.040Z,2.60
2018-01-12T23:18:07.085Z,2.40
2018-01-12T23:20:35.353Z,2.40
2018-01-12T23:23:03.648Z,2.60
2018-01-12T23:25:31.935Z,2.40
2018-01-12T23:28:00.196Z,2.40
2018-01-12T23:30:28.424Z,2.60
2018-01-12T23:32:57.666Z,2.70
2018-01-12T23:35:25.923Z,2.70
2018-01-12T23:37:54.147Z,2.60
2018-01-12T23:40:22.430Z,2.50
2018-01-12T23:42:51.493Z,2.80
2018-01-12T23:45:19.743Z,2.80
2018-01-12T23:47:48.007Z,2.60
2018-01-12T23:50:16.282Z,2.70
2018-01-12T23:52:45.367Z,2.40
2018-01-12T23:55:13.673Z,2.30
2018-01-12T23:57:41.909Z,2.50
